sensor_id;sensor_type;location;lat;lon;timestamp;temperature;humidity
23751;DHT22;12055;52.098;13.176;2022-09-03T00:02:18;9.60;99.90
23751;DHT22;12055;52.098;13.176;2022-09-03T00:07:43;9.50;99.90
23751;DHT22;12055;52.098;13.176;2022-09-03T00:10:17;9.40;99.90
23751;DHT22;12055;52.098;13.176;2022-09-03T00:12:46;9.40;99.90
23751;DHT22;12055;52.098;13.176;2022-09-03T00:15:19;9.30;99.90
23751;DHT22;12055;52.098;13.176;2022-09-03T00:21:03;9.20;99.90
23751;DHT22;12055;52.098;13.176;2022-09-03T00:23:34;9.10;99.90
23751;DHT22;12055;52.098;13.176;2022-09-03T00:29:02;9.00;99.90
23751;DHT22;12055;52.098;13.176;2022-09-03T00:31:35;8.90;99.90
23751;DHT22;12055;52.098;13.176;2022-09-03T00:34:09;8.90;99.90
23751;DHT22;12055;52.098;13.176;2022-09-03T00:36:41;8.80;99.90
23751;DHT22;12055;52.098;13.176;2022-09-03T00:39:15;8.80;99.90
23751;DHT22;12055;52.098;13.176;2022-09-03T00:42:07;8.80;99.90
23751;DHT22;12055;52.098;13.176;2022-09-03T00:45:14;8.70;99.90
23751;DHT22;12055;52.098;13.176;2022-09-03T00:48:18;8.70;99.90
23751;DHT22;12055;52.098;13.176;2022-09-03T00:51:00;8.70;99.90
23751;DHT22;12055;52.098;13.176;2022-09-03T00:56:44;8.60;99.90
23751;DHT22;12055;52.098;13.176;2022-09-03T01:02:12;8.60;99.90
23751;DHT22;12055;52.098;13.176;2022-09-03T01:05:09;8.60;99.90
23751;DHT22;12055;52.098;13.176;2022-09-03T01:07:45;8.60;99.90
23751;DHT22;12055;52.098;13.176;2022-09-03T01:10:29;8.60;99.90
23751;DHT22;12055;52.098;13.176;2022-09-03T01:13:06;8.60;99.90
23751;DHT22;12055;52.098;13.176;2022-09-03T01:16:01;8.60;99.90
23751;DHT22;12055;52.098;13.176;2022-09-03T01:18:36;8.60;99.90
23751;DHT22;12055;52.098;13.176;2022-09-03T01:21:26;8.60;99.90
23751;DHT22;12055;52.098;13.176;2022-09-03T01:27:03;8.50;99.90
23751;DHT22;12055;52.098;13.176;2022-09-03T01:29:42;8.50;99.90
23751;DHT22;12055;52.098;13.176;2022-09-03T01:37:49;8.40;99.90
23751;DHT22;12055;52.098;13.176;2022-09-03T01:40:26;8.30;99.90
23751;DHT22;12055;52.098;13.176;2022-09-03T01:51:02;8.20;99.90
23751;DHT22;12055;52.098;13.176;2022-09-03T01:53:37;8.20;99.90
23751;DHT22;12055;52.098;13.176;2022-09-03T01:56:21;8.20;99.90
23751;DHT22;12055;52.098;13.176;2022-09-03T01:59:06;8.20;99.90
23751;DHT22;12055;52.098;13.176;2022-09-03T02:01:45;8.10;99.90
23751;DHT22;12055;52.098;13.176;2022-09-03T02:04:18;8.10;99.90
23751;DHT22;12055;52.098;13.176;2022-09-03T02:06:44;8.00;99.90
23751;DHT22;12055;52.098;13.176;2022-09-03T02:09:10;8.00;99.90
23751;DHT22;12055;52.098;13.176;2022-09-03T02:11:36;8.00;99.90
23751;DHT22;12055;52.098;13.176;2022-09-03T02:14:01;8.00;99.90
23751;DHT22;12055;52.098;13.176;2022-09-03T02:16:30;8.00;99.90
23751;DHT22;12055;52.098;13.176;2022-09-03T02:19:06;7.90;99.90
23751;DHT22;12055;52.098;13.176;2022-09-03T02:21:38;7.90;99.90
23751;DHT22;12055;52.098;13.176;2022-09-03T02:24:04;7.90;99.90
23751;DHT22;12055;52.098;13.176;2022-09-03T02:26:30;7.80;99.90
23751;DHT22;12055;52.098;13.176;2022-09-03T02:28:56;7.80;99.90
23751;DHT22;12055;52.098;13.176;2022-09-03T02:31:22;7.80;99.90
23751;DHT22;12055;52.098;13.176;2022-09-03T02:33:49;7.70;99.90
23751;DHT22;12055;52.098;13.176;2022-09-03T02:36:18;7.70;99.90
23751;DHT22;12055;52.098;13.176;2022-09-03T02:38:45;7.70;99.90
23751;DHT22;12055;52.098;13.176;2022-09-03T02:41:11;7.70;99.90
23751;DHT22;12055;52.098;13.176;2022-09-03T02:43:49;7.60;99.90
23751;DHT22;12055;52.098;13.176;2022-09-03T02:46:23;7.60;99.90
23751;DHT22;12055;52.098;13.176;2022-09-03T02:48:51;7.60;99.90
23751;DHT22;12055;52.098;13.176;2022-09-03T02:51:17;7.50;99.90
23751;DHT22;12055;52.098;13.176;2022-09-03T02:53:43;7.50;99.90
23751;DHT22;12055;52.098;13.176;2022-09-03T02:56:08;7.50;99.90
23751;DHT22;12055;52.098;13.176;2022-09-03T02:58:34;7.50;99.90
23751;DHT22;12055;52.098;13.176;2022-09-03T03:00:59;7.50;99.90
23751;DHT22;12055;52.098;13.176;2022-09-03T03:03:25;7.40;99.90
23751;DHT22;12055;52.098;13.176;2022-09-03T03:05:53;7.40;99.90
23751;DHT22;12055;52.098;13.176;2022-09-03T03:08:24;7.40;99.90
23751;DHT22;12055;52.098;13.176;2022-09-03T03:10:55;7.40;99.90
23751;DHT22;12055;52.098;13.176;2022-09-03T03:13:26;7.40;99.90
23751;DHT22;12055;52.098;13.176;2022-09-03T03:15:59;7.40;99.90
23751;DHT22;12055;52.098;13.176;2022-09-03T03:18:25;7.40;99.90
23751;DHT22;12055;52.098;13.176;2022-09-03T03:20:50;7.40;99.90
23751;DHT22;12055;52.098;13.176;2022-09-03T03:23:16;7.40;99.90
23751;DHT22;12055;52.098;13.176;2022-09-03T03:25:42;7.40;99.90
23751;DHT22;12055;52.098;13.176;2022-09-03T03:28:08;7.30;99.90
23751;DHT22;12055;52.098;13.176;2022-09-03T03:30:36;7.30;99.90
23751;DHT22;12055;52.098;13.176;2022-09-03T03:33:03;7.30;99.90
23751;DHT22;12055;52.098;13.176;2022-09-03T03:35:29;7.30;99.90
23751;DHT22;12055;52.098;13.176;2022-09-03T03:37:59;7.20;99.90
23751;DHT22;12055;52.098;13.176;2022-09-03T03:40:25;7.20;99.90
23751;DHT22;12055;52.098;13.176;2022-09-03T03:42:51;7.20;99.90
23751;DHT22;12055;52.098;13.176;2022-09-03T03:45:17;7.10;99.90
23751;DHT22;12055;52.098;13.176;2022-09-03T03:47:43;7.10;99.90
23751;DHT22;12055;52.098;13.176;2022-09-03T03:50:08;7.10;99.90
23751;DHT22;12055;52.098;13.176;2022-09-03T03:52:34;7.10;99.90
23751;DHT22;12055;52.098;13.176;2022-09-03T03:54:59;7.00;99.90
23751;DHT22;12055;52.098;13.176;2022-09-03T03:57:28;7.00;99.90
23751;DHT22;12055;52.098;13.176;2022-09-03T03:59:53;7.00;99.90
23751;DHT22;12055;52.098;13.176;2022-09-03T04:02:19;6.90;99.90
23751;DHT22;12055;52.098;13.176;2022-09-03T04:04:45;6.90;99.90
23751;DHT22;12055;52.098;13.176;2022-09-03T04:07:11;6.90;99.90
23751;DHT22;12055;52.098;13.176;2022-09-03T04:09:36;6.90;99.90
23751;DHT22;12055;52.098;13.176;2022-09-03T04:12:03;6.80;99.90
23751;DHT22;12055;52.098;13.176;2022-09-03T04:14:33;6.90;99.90
23751;DHT22;12055;52.098;13.176;2022-09-03T04:16:59;6.80;99.90
23751;DHT22;12055;52.098;13.176;2022-09-03T04:19:25;6.80;99.90
23751;DHT22;12055;52.098;13.176;2022-09-03T04:21:52;6.70;99.90
23751;DHT22;12055;52.098;13.176;2022-09-03T04:24:18;6.70;99.90
23751;DHT22;12055;52.098;13.176;2022-09-03T04:26:44;6.70;99.90
23751;DHT22;12055;52.098;13.176;2022-09-03T04:29:09;6.70;99.90
23751;DHT22;12055;52.098;13.176;2022-09-03T04:31:36;6.70;99.90
23751;DHT22;12055;52.098;13.176;2022-09-03T04:34:02;6.70;99.90
23751;DHT22;12055;52.098;13.176;2022-09-03T04:36:30;6.70;99.90
23751;DHT22;12055;52.098;13.176;2022-09-03T04:38:59;6.80;99.90
23751;DHT22;12055;52.098;13.176;2022-09-03T04:41:27;6.80;99.90
23751;DHT22;12055;52.098;13.176;2022-09-03T04:43:54;6.90;99.90
23751;DHT22;12055;52.098;13.176;2022-09-03T04:46:21;7.00;99.90
23751;DHT22;12055;52.098;13.176;2022-09-03T04:48:49;7.10;99.90
23751;DHT22;12055;52.098;13.176;2022-09-03T04:51:20;7.30;99.90
23751;DHT22;12055;52.098;13.176;2022-09-03T04:53:47;7.40;99.90
23751;DHT22;12055;52.098;13.176;2022-09-03T04:56:15;7.50;99.90
23751;DHT22;12055;52.098;13.176;2022-09-03T04:58:41;7.70;99.90
23751;DHT22;12055;52.098;13.176;2022-09-03T05:01:18;7.90;99.90
23751;DHT22;12055;52.098;13.176;2022-09-03T05:03:45;8.00;99.90
23751;DHT22;12055;52.098;13.176;2022-09-03T05:06:11;8.10;99.90
23751;DHT22;12055;52.098;13.176;2022-09-03T05:08:36;8.30;99.90
23751;DHT22;12055;52.098;13.176;2022-09-03T05:11:06;8.40;99.90
23751;DHT22;12055;52.098;13.176;2022-09-03T05:13:33;8.50;99.90
23751;DHT22;12055;52.098;13.176;2022-09-03T05:16:04;8.70;99.90
23751;DHT22;12055;52.098;13.176;2022-09-03T05:18:31;8.80;99.90
23751;DHT22;12055;52.098;13.176;2022-09-03T05:21:02;9.00;99.90
23751;DHT22;12055;52.098;13.176;2022-09-03T05:23:29;9.10;99.90
23751;DHT22;12055;52.098;13.176;2022-09-03T05:26:02;9.30;99.90
23751;DHT22;12055;52.098;13.176;2022-09-03T05:28:30;9.40;99.90
23751;DHT22;12055;52.098;13.176;2022-09-03T05:31:16;9.60;99.90
23751;DHT22;12055;52.098;13.176;2022-09-03T05:33:43;9.80;99.90
23751;DHT22;12055;52.098;13.176;2022-09-03T05:36:12;10.00;99.90
23751;DHT22;12055;52.098;13.176;2022-09-03T05:38:38;10.20;99.90
23751;DHT22;12055;52.098;13.176;2022-09-03T05:41:06;10.40;99.90
23751;DHT22;12055;52.098;13.176;2022-09-03T05:43:33;10.70;99.90
23751;DHT22;12055;52.098;13.176;2022-09-03T05:46:00;11.00;99.90
23751;DHT22;12055;52.098;13.176;2022-09-03T05:48:26;11.30;99.90
23751;DHT22;12055;52.098;13.176;2022-09-03T05:53:29;11.80;99.90
23751;DHT22;12055;52.098;13.176;2022-09-03T05:55:57;12.00;99.90
23751;DHT22;12055;52.098;13.176;2022-09-03T05:58:23;12.20;99.90
23751;DHT22;12055;52.098;13.176;2022-09-03T06:00:50;12.40;99.90
23751;DHT22;12055;52.098;13.176;2022-09-03T06:03:15;12.60;99.90
23751;DHT22;12055;52.098;13.176;2022-09-03T06:05:49;12.80;99.90
23751;DHT22;12055;52.098;13.176;2022-09-03T06:08:14;12.90;99.90
23751;DHT22;12055;52.098;13.176;2022-09-03T06:10:40;13.10;99.90
23751;DHT22;12055;52.098;13.176;2022-09-03T06:13:05;13.20;99.90
23751;DHT22;12055;52.098;13.176;2022-09-03T06:15:31;13.40;99.90
23751;DHT22;12055;52.098;13.176;2022-09-03T06:17:57;13.50;99.90
23751;DHT22;12055;52.098;13.176;2022-09-03T06:20:22;13.70;99.90
23751;DHT22;12055;52.098;13.176;2022-09-03T06:22:52;13.80;99.90
23751;DHT22;12055;52.098;13.176;2022-09-03T06:25:18;14.00;99.90
23751;DHT22;12055;52.098;13.176;2022-09-03T06:27:43;14.20;99.90
23751;DHT22;12055;52.098;13.176;2022-09-03T06:30:10;14.40;99.90
23751;DHT22;12055;52.098;13.176;2022-09-03T06:32:43;14.60;99.90
23751;DHT22;12055;52.098;13.176;2022-09-03T06:35:09;14.80;99.90
23751;DHT22;12055;52.098;13.176;2022-09-03T06:37:41;15.00;99.90
23751;DHT22;12055;52.098;13.176;2022-09-03T06:40:08;15.20;99.90
23751;DHT22;12055;52.098;13.176;2022-09-03T06:42:38;15.40;99.90
23751;DHT22;12055;52.098;13.176;2022-09-03T06:45:06;15.60;99.90
23751;DHT22;12055;52.098;13.176;2022-09-03T06:47:32;15.70;99.90
23751;DHT22;12055;52.098;13.176;2022-09-03T06:49:58;15.80;99.90
23751;DHT22;12055;52.098;13.176;2022-09-03T06:52:24;16.00;99.90
23751;DHT22;12055;52.098;13.176;2022-09-03T06:54:50;16.10;99.90
23751;DHT22;12055;52.098;13.176;2022-09-03T06:57:15;16.90;99.90
23751;DHT22;12055;52.098;13.176;2022-09-03T06:59:41;17.80;99.90
23751;DHT22;12055;52.098;13.176;2022-09-03T07:02:08;18.70;99.90
23751;DHT22;12055;52.098;13.176;2022-09-03T07:04:33;19.50;99.90
23751;DHT22;12055;52.098;13.176;2022-09-03T07:06:59;19.70;99.90
23751;DHT22;12055;52.098;13.176;2022-09-03T07:09:25;20.10;99.90
23751;DHT22;12055;52.098;13.176;2022-09-03T07:11:51;19.70;99.90
23751;DHT22;12055;52.098;13.176;2022-09-03T07:14:17;19.30;99.90
23751;DHT22;12055;52.098;13.176;2022-09-03T07:16:43;19.10;99.90
23751;DHT22;12055;52.098;13.176;2022-09-03T07:19:10;19.10;99.90
23751;DHT22;12055;52.098;13.176;2022-09-03T07:21:37;19.20;99.90
23751;DHT22;12055;52.098;13.176;2022-09-03T07:24:05;19.30;99.90
23751;DHT22;12055;52.098;13.176;2022-09-03T07:26:34;19.50;99.90
23751;DHT22;12055;52.098;13.176;2022-09-03T07:29:00;20.00;99.90
23751;DHT22;12055;52.098;13.176;2022-09-03T07:31:29;20.30;99.90
23751;DHT22;12055;52.098;13.176;2022-09-03T07:33:56;20.50;99.90
23751;DHT22;12055;52.098;13.176;2022-09-03T07:36:23;20.50;99.90
23751;DHT22;12055;52.098;13.176;2022-09-03T07:38:50;20.90;99.90
23751;DHT22;12055;52.098;13.176;2022-09-03T07:41:15;21.30;99.90
23751;DHT22;12055;52.098;13.176;2022-09-03T07:43:45;21.30;99.90
23751;DHT22;12055;52.098;13.176;2022-09-03T07:46:13;21.80;99.90
23751;DHT22;12055;52.098;13.176;2022-09-03T07:48:40;21.30;99.90
23751;DHT22;12055;52.098;13.176;2022-09-03T07:51:06;20.90;99.90
23751;DHT22;12055;52.098;13.176;2022-09-03T07:53:32;20.80;99.90
23751;DHT22;12055;52.098;13.176;2022-09-03T07:56:02;21.10;99.90
23751;DHT22;12055;52.098;13.176;2022-09-03T07:58:29;21.60;99.90
23751;DHT22;12055;52.098;13.176;2022-09-03T08:00:55;21.80;99.90
23751;DHT22;12055;52.098;13.176;2022-09-03T08:03:21;21.90;99.90
23751;DHT22;12055;52.098;13.176;2022-09-03T08:05:47;22.00;99.90
23751;DHT22;12055;52.098;13.176;2022-09-03T08:08:12;22.40;99.90
23751;DHT22;12055;52.098;13.176;2022-09-03T08:10:39;22.40;99.90
23751;DHT22;12055;52.098;13.176;2022-09-03T08:13:05;21.80;99.90
23751;DHT22;12055;52.098;13.176;2022-09-03T08:15:32;21.60;99.90
23751;DHT22;12055;52.098;13.176;2022-09-03T08:17:59;21.50;99.90
23751;DHT22;12055;52.098;13.176;2022-09-03T08:20:24;21.50;99.90
23751;DHT22;12055;52.098;13.176;2022-09-03T08:22:50;21.60;99.90
23751;DHT22;12055;52.098;13.176;2022-09-03T08:25:16;21.50;99.90
23751;DHT22;12055;52.098;13.176;2022-09-03T08:27:41;21.40;99.90
23751;DHT22;12055;52.098;13.176;2022-09-03T08:30:07;21.40;99.90
23751;DHT22;12055;52.098;13.176;2022-09-03T08:32:36;21.40;99.90
23751;DHT22;12055;52.098;13.176;2022-09-03T08:35:02;21.50;99.90
23751;DHT22;12055;52.098;13.176;2022-09-03T08:37:27;21.60;99.90
23751;DHT22;12055;52.098;13.176;2022-09-03T08:39:53;21.60;99.90
23751;DHT22;12055;52.098;13.176;2022-09-03T08:42:43;21.60;99.90
23751;DHT22;12055;52.098;13.176;2022-09-03T08:45:16;21.60;99.90
23751;DHT22;12055;52.098;13.176;2022-09-03T08:48:04;21.60;99.90
23751;DHT22;12055;52.098;13.176;2022-09-03T08:50:37;21.60;99.90
23751;DHT22;12055;52.098;13.176;2022-09-03T08:53:08;21.50;99.90
23751;DHT22;12055;52.098;13.176;2022-09-03T08:55:59;21.70;99.90
23751;DHT22;12055;52.098;13.176;2022-09-03T08:58:30;21.60;99.90
23751;DHT22;12055;52.098;13.176;2022-09-03T09:00:59;21.60;99.90
23751;DHT22;12055;52.098;13.176;2022-09-03T09:03:34;21.80;99.90
23751;DHT22;12055;52.098;13.176;2022-09-03T09:09:34;21.90;99.90
23751;DHT22;12055;52.098;13.176;2022-09-03T09:14:38;22.40;99.90
23751;DHT22;12055;52.098;13.176;2022-09-03T09:25:27;22.50;99.90
23751;DHT22;12055;52.098;13.176;2022-09-03T09:28:03;22.60;99.90
23751;DHT22;12055;52.098;13.176;2022-09-03T09:30:32;22.50;99.90
23751;DHT22;12055;52.098;13.176;2022-09-03T09:32:58;22.50;99.90
23751;DHT22;12055;52.098;13.176;2022-09-03T09:35:24;22.70;99.90
23751;DHT22;12055;52.098;13.176;2022-09-03T09:37:55;23.00;99.90
23751;DHT22;12055;52.098;13.176;2022-09-03T09:42:51;23.60;99.90
23751;DHT22;12055;52.098;13.176;2022-09-03T09:45:27;24.00;99.90
23751;DHT22;12055;52.098;13.176;2022-09-03T09:47:54;24.00;99.90
23751;DHT22;12055;52.098;13.176;2022-09-03T09:50:20;23.70;99.90
23751;DHT22;12055;52.098;13.176;2022-09-03T09:52:46;23.60;99.90
23751;DHT22;12055;52.098;13.176;2022-09-03T09:55:17;23.90;99.60
23751;DHT22;12055;52.098;13.176;2022-09-03T09:57:44;23.90;98.40
23751;DHT22;12055;52.098;13.176;2022-09-03T10:00:16;23.90;97.90
23751;DHT22;12055;52.098;13.176;2022-09-03T10:02:52;24.00;96.50
23751;DHT22;12055;52.098;13.176;2022-09-03T10:05:26;24.10;97.10
23751;DHT22;12055;52.098;13.176;2022-09-03T10:08:03;23.80;96.70
23751;DHT22;12055;52.098;13.176;2022-09-03T10:10:32;23.50;96.70
23751;DHT22;12055;52.098;13.176;2022-09-03T10:18:48;23.10;96.50
23751;DHT22;12055;52.098;13.176;2022-09-03T10:21:28;22.90;97.30
23751;DHT22;12055;52.098;13.176;2022-09-03T10:26:54;23.80;96.70
23751;DHT22;12055;52.098;13.176;2022-09-03T10:29:21;24.10;95.70
23751;DHT22;12055;52.098;13.176;2022-09-03T10:31:58;24.50;95.50
23751;DHT22;12055;52.098;13.176;2022-09-03T10:34:44;24.70;95.60
23751;DHT22;12055;52.098;13.176;2022-09-03T10:37:32;24.00;95.30
23751;DHT22;12055;52.098;13.176;2022-09-03T10:42:44;23.70;96.30
23751;DHT22;12055;52.098;13.176;2022-09-03T10:45:30;23.80;96.40
23751;DHT22;12055;52.098;13.176;2022-09-03T10:51:00;25.80;96.50
23751;DHT22;12055;52.098;13.176;2022-09-03T10:54:01;25.80;94.30
23751;DHT22;12055;52.098;13.176;2022-09-03T10:56:52;26.10;93.80
23751;DHT22;12055;52.098;13.176;2022-09-03T10:59:37;25.90;93.90
23751;DHT22;12055;52.098;13.176;2022-09-03T11:05:07;25.20;94.90
23751;DHT22;12055;52.098;13.176;2022-09-03T11:07:38;25.60;94.00
23751;DHT22;12055;52.098;13.176;2022-09-03T11:10:17;25.90;94.30
23751;DHT22;12055;52.098;13.176;2022-09-03T11:12:53;26.20;92.40
23751;DHT22;12055;52.098;13.176;2022-09-03T11:15:43;25.80;92.10
23751;DHT22;12055;52.098;13.176;2022-09-03T11:18:28;25.40;92.80
23751;DHT22;12055;52.098;13.176;2022-09-03T11:21:01;24.80;92.70
23751;DHT22;12055;52.098;13.176;2022-09-03T11:23:32;24.80;94.20
23751;DHT22;12055;52.098;13.176;2022-09-03T11:26:03;24.80;93.50
23751;DHT22;12055;52.098;13.176;2022-09-03T11:31:38;25.40;93.30
23751;DHT22;12055;52.098;13.176;2022-09-03T11:34:15;25.10;93.50
23751;DHT22;12055;52.098;13.176;2022-09-03T11:36:51;25.30;94.10
23751;DHT22;12055;52.098;13.176;2022-09-03T11:39:19;25.10;92.70
23751;DHT22;12055;52.098;13.176;2022-09-03T11:41:58;24.80;93.00
23751;DHT22;12055;52.098;13.176;2022-09-03T11:44:36;24.10;93.50
23751;DHT22;12055;52.098;13.176;2022-09-03T11:47:14;23.90;93.60
23751;DHT22;12055;52.098;13.176;2022-09-03T11:49:51;24.50;94.30
23751;DHT22;12055;52.098;13.176;2022-09-03T11:52:27;25.20;94.90
23751;DHT22;12055;52.098;13.176;2022-09-03T11:54:54;25.70;93.70
23751;DHT22;12055;52.098;13.176;2022-09-03T11:57:27;25.60;93.10
23751;DHT22;12055;52.098;13.176;2022-09-03T11:59:53;25.80;92.90
23751;DHT22;12055;52.098;13.176;2022-09-03T12:02:30;25.40;92.60
23751;DHT22;12055;52.098;13.176;2022-09-03T12:07:53;24.70;94.00
23751;DHT22;12055;52.098;13.176;2022-09-03T12:13:11;24.10;94.00
23751;DHT22;12055;52.098;13.176;2022-09-03T12:16:05;24.00;95.00
23751;DHT22;12055;52.098;13.176;2022-09-03T12:18:35;24.80;96.10
23751;DHT22;12055;52.098;13.176;2022-09-03T12:21:03;25.50;95.40
23751;DHT22;12055;52.098;13.176;2022-09-03T12:23:34;26.00;93.40
23751;DHT22;12055;52.098;13.176;2022-09-03T12:26:40;26.00;91.80
23751;DHT22;12055;52.098;13.176;2022-09-03T12:28:59;25.80;92.40
23751;DHT22;12055;52.098;13.176;2022-09-03T12:31:30;25.80;92.40
23751;DHT22;12055;52.098;13.176;2022-09-03T12:34:08;25.60;91.50
23751;DHT22;12055;52.098;13.176;2022-09-03T12:36:40;25.70;92.70
23751;DHT22;12055;52.098;13.176;2022-09-03T12:39:17;26.20;91.50
23751;DHT22;12055;52.098;13.176;2022-09-03T12:42:04;26.50;90.80
23751;DHT22;12055;52.098;13.176;2022-09-03T12:44:40;26.80;91.50
23751;DHT22;12055;52.098;13.176;2022-09-03T12:47:13;27.10;90.70
23751;DHT22;12055;52.098;13.176;2022-09-03T12:49:41;26.50;90.80
23751;DHT22;12055;52.098;13.176;2022-09-03T12:52:17;26.20;91.40
23751;DHT22;12055;52.098;13.176;2022-09-03T12:55:00;26.10;92.40
23751;DHT22;12055;52.098;13.176;2022-09-03T12:57:32;26.30;92.00
23751;DHT22;12055;52.098;13.176;2022-09-03T13:00:04;26.00;91.50
23751;DHT22;12055;52.098;13.176;2022-09-03T13:02:52;25.80;92.10
23751;DHT22;12055;52.098;13.176;2022-09-03T13:05:25;25.40;92.40
23751;DHT22;12055;52.098;13.176;2022-09-03T13:07:57;26.10;92.80
23751;DHT22;12055;52.098;13.176;2022-09-03T13:10:30;26.40;93.00
23751;DHT22;12055;52.098;13.176;2022-09-03T13:13:02;26.00;91.60
23751;DHT22;12055;52.098;13.176;2022-09-03T13:15:28;25.40;92.80
23751;DHT22;12055;52.098;13.176;2022-09-03T13:18:18;24.60;92.40
23751;DHT22;12055;52.098;13.176;2022-09-03T13:23:49;24.00;94.10
23751;DHT22;12055;52.098;13.176;2022-09-03T13:29:18;24.60;94.40
23751;DHT22;12055;52.098;13.176;2022-09-03T13:31:47;25.50;93.90
23751;DHT22;12055;52.098;13.176;2022-09-03T13:34:33;25.20;92.40
23751;DHT22;12055;52.098;13.176;2022-09-03T13:37:19;24.80;93.00
23751;DHT22;12055;52.098;13.176;2022-09-03T13:39:58;24.40;93.70
23751;DHT22;12055;52.098;13.176;2022-09-03T13:42:40;24.00;94.20
23751;DHT22;12055;52.098;13.176;2022-09-03T13:45:25;24.70;93.60
23751;DHT22;12055;52.098;13.176;2022-09-03T13:47:58;24.80;93.10
23751;DHT22;12055;52.098;13.176;2022-09-03T13:51:07;26.20;92.90
23751;DHT22;12055;52.098;13.176;2022-09-03T13:59:45;30.10;90.10
23751;DHT22;12055;52.098;13.176;2022-09-03T14:05:16;28.90;89.80
23751;DHT22;12055;52.098;13.176;2022-09-03T14:13:59;27.70;88.40
23751;DHT22;12055;52.098;13.176;2022-09-03T14:16:52;26.20;90.50
23751;DHT22;12055;52.098;13.176;2022-09-03T14:22:32;24.70;92.30
23751;DHT22;12055;52.098;13.176;2022-09-03T14:25:16;25.70;91.80
23751;DHT22;12055;52.098;13.176;2022-09-03T14:27:42;26.60;91.10
23751;DHT22;12055;52.098;13.176;2022-09-03T14:30:34;27.60;91.10
23751;DHT22;12055;52.098;13.176;2022-09-03T14:33:24;29.20;89.00
23751;DHT22;12055;52.098;13.176;2022-09-03T14:38:37;29.90;83.30
23751;DHT22;12055;52.098;13.176;2022-09-03T14:41:20;29.00;83.00
23751;DHT22;12055;52.098;13.176;2022-09-03T14:46:45;26.20;90.50
23751;DHT22;12055;52.098;13.176;2022-09-03T14:49:32;25.70;90.90
23751;DHT22;12055;52.098;13.176;2022-09-03T14:52:14;25.00;91.70
23751;DHT22;12055;52.098;13.176;2022-09-03T14:55:06;25.10;91.90
23751;DHT22;12055;52.098;13.176;2022-09-03T14:58:04;24.60;91.50
23751;DHT22;12055;52.098;13.176;2022-09-03T15:00:49;24.30;92.50
23751;DHT22;12055;52.098;13.176;2022-09-03T15:03:53;24.00;93.00
23751;DHT22;12055;52.098;13.176;2022-09-03T15:06:38;23.70;93.60
23751;DHT22;12055;52.098;13.176;2022-09-03T15:12:05;23.20;95.30
23751;DHT22;12055;52.098;13.176;2022-09-03T15:14:45;23.20;94.30
23751;DHT22;12055;52.098;13.176;2022-09-03T15:22:36;26.40;91.50
23751;DHT22;12055;52.098;13.176;2022-09-03T15:25:29;25.60;92.30
23751;DHT22;12055;52.098;13.176;2022-09-03T15:28:16;25.30;92.30
23751;DHT22;12055;52.098;13.176;2022-09-03T15:31:03;25.30;92.30
23751;DHT22;12055;52.098;13.176;2022-09-03T15:36:40;24.10;93.50
23751;DHT22;12055;52.098;13.176;2022-09-03T15:39:16;24.10;93.40
23751;DHT22;12055;52.098;13.176;2022-09-03T15:41:58;24.80;92.60
23751;DHT22;12055;52.098;13.176;2022-09-03T15:44:25;24.60;92.90
23751;DHT22;12055;52.098;13.176;2022-09-03T15:50:14;26.20;92.90
23751;DHT22;12055;52.098;13.176;2022-09-03T15:52:25;27.30;91.20
23751;DHT22;12055;52.098;13.176;2022-09-03T15:57:46;28.00;90.20
23751;DHT22;12055;52.098;13.176;2022-09-03T16:00:19;28.00;89.30
23751;DHT22;12055;52.098;13.176;2022-09-03T16:03:09;27.80;90.40
23751;DHT22;12055;52.098;13.176;2022-09-03T16:05:48;27.90;90.50
23751;DHT22;12055;52.098;13.176;2022-09-03T16:08:50;27.60;90.70
23751;DHT22;12055;52.098;13.176;2022-09-03T16:19:09;28.30;89.50
23751;DHT22;12055;52.098;13.176;2022-09-03T16:21:47;28.00;90.20
23751;DHT22;12055;52.098;13.176;2022-09-03T16:24:22;27.20;89.70
23751;DHT22;12055;52.098;13.176;2022-09-03T16:26:54;25.70;91.00
23751;DHT22;12055;52.098;13.176;2022-09-03T16:29:25;24.70;92.50
23751;DHT22;12055;52.098;13.176;2022-09-03T16:32:39;24.10;93.40
23751;DHT22;12055;52.098;13.176;2022-09-03T16:35:15;23.90;93.50
23751;DHT22;12055;52.098;13.176;2022-09-03T16:40:41;25.10;93.50
23751;DHT22;12055;52.098;13.176;2022-09-03T16:46:09;25.60;92.00
23751;DHT22;12055;52.098;13.176;2022-09-03T16:51:36;25.50;91.80
23751;DHT22;12055;52.098;13.176;2022-09-03T16:57:11;25.70;92.70
23751;DHT22;12055;52.098;13.176;2022-09-03T17:16:01;23.20;94.20
23751;DHT22;12055;52.098;13.176;2022-09-03T17:21:38;22.80;95.30
23751;DHT22;12055;52.098;13.176;2022-09-03T17:30:27;21.80;96.50
23751;DHT22;12055;52.098;13.176;2022-09-03T17:35:42;21.20;97.20
23751;DHT22;12055;52.098;13.176;2022-09-03T17:47:27;20.60;98.10
23751;DHT22;12055;52.098;13.176;2022-09-03T17:50:04;20.50;98.70
23751;DHT22;12055;52.098;13.176;2022-09-03T17:52:42;20.40;98.70
23751;DHT22;12055;52.098;13.176;2022-09-03T17:55:28;20.30;99.00
23751;DHT22;12055;52.098;13.176;2022-09-03T17:58:18;20.20;99.60
23751;DHT22;12055;52.098;13.176;2022-09-03T18:06:03;19.90;99.90
23751;DHT22;12055;52.098;13.176;2022-09-03T18:08:51;19.90;99.90
23751;DHT22;12055;52.098;13.176;2022-09-03T18:11:30;19.80;99.90
23751;DHT22;12055;52.098;13.176;2022-09-03T18:14:25;19.70;99.90
23751;DHT22;12055;52.098;13.176;2022-09-03T18:17:32;19.60;99.90
23751;DHT22;12055;52.098;13.176;2022-09-03T18:20:09;19.50;99.90
23751;DHT22;12055;52.098;13.176;2022-09-03T18:23:11;19.40;99.90
23751;DHT22;12055;52.098;13.176;2022-09-03T18:26:04;19.30;99.90
23751;DHT22;12055;52.098;13.176;2022-09-03T18:28:56;19.20;99.90
23751;DHT22;12055;52.098;13.176;2022-09-03T18:31:43;19.00;99.90
23751;DHT22;12055;52.098;13.176;2022-09-03T18:34:33;18.90;99.90
23751;DHT22;12055;52.098;13.176;2022-09-03T18:37:21;18.70;99.90
23751;DHT22;12055;52.098;13.176;2022-09-03T18:40:07;18.60;99.90
23751;DHT22;12055;52.098;13.176;2022-09-03T18:42:58;18.50;99.90
23751;DHT22;12055;52.098;13.176;2022-09-03T18:46:03;18.40;99.90
23751;DHT22;12055;52.098;13.176;2022-09-03T18:48:54;18.20;99.90
23751;DHT22;12055;52.098;13.176;2022-09-03T18:52:10;18.10;99.90
23751;DHT22;12055;52.098;13.176;2022-09-03T18:58:37;17.80;99.90
23751;DHT22;12055;52.098;13.176;2022-09-03T19:01:38;17.80;99.90
23751;DHT22;12055;52.098;13.176;2022-09-03T19:04:46;17.70;99.90
23751;DHT22;12055;52.098;13.176;2022-09-03T19:07:46;17.60;99.90
23751;DHT22;12055;52.098;13.176;2022-09-03T19:10:42;17.60;99.90
23751;DHT22;12055;52.098;13.176;2022-09-03T19:13:36;17.60;99.90